メインページ
METAR-TAF:

METAR-TAF

空港 :

オスロ, ノルウェー

オスロ空港

緯度: 60-12N, 経度: 011-05E, 海抜: 208m

現時点の気象観測

当レポートは42分前の05:20(UTC)に作成
の風 7kt
気温 11°C
湿度 87%
気圧 1005 hPa
視程10km以上
高度700ftの雲はほとんどない
高度1400ftの千切れ雲あり

METAR: ENGM 200520Z 17007KT 9999 FEW007 BKN014 11/09 Q1005 TEMPO SCT014

時間: 08:02 (06:02 UTC)

予報

予報は20日の 06時(UTC)から 21日の 06時(UTC)まで有効
の風 8kt
視程10km以上
高度1200ftの雲はほとんどない
高度3000ftの雲は散在している
確率 40% :
20日の 08時(UTC)から 20日の 18時(UTC)まで一時的に
高度2500ftの雲は散在している, 積乱雲.
高度3000ftの千切れ雲あり
にわか雨
21日の 00時(UTC)から 21日の 02時(UTC)まで徐々に
の風 10kt

TAF: ENGM 2006/2106 18008KT 9999 FEW012 SCT030 PROB40 TEMPO 2008/2018 SHRA SCT025CB BKN030 BECMG 2100/2102 36010KT

4,000以上の空港の気象観測と天気予報(METAR報とTAF報)

利用可能な観測所は地図上に黄色い丸と赤い丸で示す。

丸の上にカーソルを重ねると観測所名を参照できる。

次にクリックすると気象観測と天気予報を参照できる。

マップの切り替え:黒色「×」印の緑ボタンをクリックして拡大、「-」印の緑ボタンをクリックして縮小、緑色の三角印をクリックして隣りの地図に切り替え


METAR-TAF: